sensor_id;sensor_type;location;lat;lon;timestamp;pressure;altitude;pressure_sealevel;temperature;humidity
12676;BME280;63820;65.654;21.944;2022-12-18T00:04:06;101227.56;;;-17.30;100.00
12676;BME280;63820;65.654;21.944;2022-12-18T00:06:51;101224.84;;;-17.43;100.00
12676;BME280;63820;65.654;21.944;2022-12-18T00:09:36;101226.22;;;-17.57;100.00
12676;BME280;63820;65.654;21.944;2022-12-18T00:12:21;101226.00;;;-17.60;100.00
12676;BME280;63820;65.654;21.944;2022-12-18T00:15:05;101221.44;;;-17.65;100.00
12676;BME280;63820;65.654;21.944;2022-12-18T00:17:49;101227.44;;;-17.73;100.00
12676;BME280;63820;65.654;21.944;2022-12-18T00:20:38;101234.13;;;-17.82;100.00
12676;BME280;63820;65.654;21.944;2022-12-18T00:23:23;101227.19;;;-17.86;100.00
12676;BME280;63820;65.654;21.944;2022-12-18T00:26:12;101232.41;;;-17.94;100.00
12676;BME280;63820;65.654;21.944;2022-12-18T00:29:03;101234.88;;;-18.04;100.00
12676;BME280;63820;65.654;21.944;2022-12-18T00:31:47;101233.13;;;-18.15;100.00
12676;BME280;63820;65.654;21.944;2022-12-18T00:34:31;101228.13;;;-18.25;100.00
12676;BME280;63820;65.654;21.944;2022-12-18T00:37:15;101236.19;;;-18.28;100.00
12676;BME280;63820;65.654;21.944;2022-12-18T00:39:59;101233.47;;;-18.31;100.00
12676;BME280;63820;65.654;21.944;2022-12-18T00:42:43;101241.53;;;-18.23;100.00
12676;BME280;63820;65.654;21.944;2022-12-18T00:45:40;101236.34;;;-18.16;100.00
12676;BME280;63820;65.654;21.944;2022-12-18T00:48:25;101230.75;;;-18.24;100.00
12676;BME280;63820;65.654;21.944;2022-12-18T00:51:09;101231.00;;;-18.21;100.00
12676;BME280;63820;65.654;21.944;2022-12-18T00:53:53;101226.66;;;-18.23;100.00
12676;BME280;63820;65.654;21.944;2022-12-18T00:56:39;101231.00;;;-18.21;100.00
12676;BME280;63820;65.654;21.944;2022-12-18T00:59:23;101237.09;;;-18.17;100.00
12676;BME280;63820;65.654;21.944;2022-12-18T01:02:07;101234.09;;;-18.23;100.00
12676;BME280;63820;65.654;21.944;2022-12-18T01:04:52;101221.44;;;-18.26;100.00
12676;BME280;63820;65.654;21.944;2022-12-18T01:07:36;101228.13;;;-18.25;100.00
12676;BME280;63820;65.654;21.944;2022-12-18T01:10:21;101232.34;;;-18.34;100.00
12676;BME280;63820;65.654;21.944;2022-12-18T01:13:05;101229.09;;;-18.43;100.00
12676;BME280;63820;65.654;21.944;2022-12-18T01:15:50;101227.72;;;-18.40;100.00
12676;BME280;63820;65.654;21.944;2022-12-18T01:18:35;101238.53;;;-18.39;100.00
12676;BME280;63820;65.654;21.944;2022-12-18T01:21:21;101230.56;;;-18.45;100.00
12676;BME280;63820;65.654;21.944;2022-12-18T01:24:06;101234.28;;;-18.50;100.00
12676;BME280;63820;65.654;21.944;2022-12-18T01:26:50;101233.94;;;-18.45;100.00
12676;BME280;63820;65.654;21.944;2022-12-18T01:29:34;101235.75;;;-18.52;100.00
12676;BME280;63820;65.654;21.944;2022-12-18T01:32:19;101236.50;;;-18.64;100.00
12676;BME280;63820;65.654;21.944;2022-12-18T01:35:03;101239.97;;;-18.62;100.00
12676;BME280;63820;65.654;21.944;2022-12-18T01:37:47;101238.25;;;-18.63;100.00
12676;BME280;63820;65.654;21.944;2022-12-18T01:40:31;101241.72;;;-18.50;100.00
12676;BME280;63820;65.654;21.944;2022-12-18T01:43:15;101233.03;;;-18.56;100.00
12676;BME280;63820;65.654;21.944;2022-12-18T01:46:00;101231.81;;;-18.61;100.00
12676;BME280;63820;65.654;21.944;2022-12-18T01:48:46;101225.34;;;-18.69;100.00
12676;BME280;63820;65.654;21.944;2022-12-18T01:51:32;101225.06;;;-18.82;100.00
12676;BME280;63820;65.654;21.944;2022-12-18T01:54:17;101239.50;;;-18.97;100.00
12676;BME280;63820;65.654;21.944;2022-12-18T01:57:01;101235.63;;;-19.03;100.00
12676;BME280;63820;65.654;21.944;2022-12-18T01:59:49;101238.72;;;-19.06;100.00
12676;BME280;63820;65.654;21.944;2022-12-18T02:02:35;101240.41;;;-19.15;100.00
12676;BME280;63820;65.654;21.944;2022-12-18T02:08:40;101242.97;;;-19.24;100.00
12676;BME280;63820;65.654;21.944;2022-12-18T02:11:39;101233.38;;;-19.29;100.00
12676;BME280;63820;65.654;21.944;2022-12-18T02:14:38;101238.28;;;-19.39;100.00
12676;BME280;63820;65.654;21.944;2022-12-18T02:23:45;101251.09;;;-19.53;100.00
12676;BME280;63820;65.654;21.944;2022-12-18T02:26:48;101247.94;;;-19.61;100.00
12676;BME280;63820;65.654;21.944;2022-12-18T02:29:38;101242.72;;;-19.64;100.00
12676;BME280;63820;65.654;21.944;2022-12-18T02:32:29;101249.75;;;-19.69;100.00
12676;BME280;63820;65.654;21.944;2022-12-18T02:35:19;101240.25;;;-19.64;100.00
12676;BME280;63820;65.654;21.944;2022-12-18T02:38:04;101253.28;;;-19.75;100.00
12676;BME280;63820;65.654;21.944;2022-12-18T02:40:51;101241.53;;;-19.59;100.00
12676;BME280;63820;65.654;21.944;2022-12-18T02:43:37;101235.63;;;-19.51;100.00
12676;BME280;63820;65.654;21.944;2022-12-18T02:46:34;101235.88;;;-19.48;100.00
12676;BME280;63820;65.654;21.944;2022-12-18T02:52:32;101232.41;;;-19.69;100.00
12676;BME280;63820;65.654;21.944;2022-12-18T03:04:43;101212.34;;;-19.91;100.00
12676;BME280;63820;65.654;21.944;2022-12-18T03:07:38;101215.09;;;-19.88;100.00
12676;BME280;63820;65.654;21.944;2022-12-18T03:10:35;101222.56;;;-19.96;100.00
12676;BME280;63820;65.654;21.944;2022-12-18T03:13:29;101231.59;;;-19.97;100.00
12676;BME280;63820;65.654;21.944;2022-12-18T03:16:24;101243.53;;;-19.93;100.00
12676;BME280;63820;65.654;21.944;2022-12-18T03:19:15;101245.81;;;-19.85;100.00
12676;BME280;63820;65.654;21.944;2022-12-18T03:22:02;101232.09;;;-19.82;100.00
12676;BME280;63820;65.654;21.944;2022-12-18T03:24:48;101242.78;;;-19.92;100.00
12676;BME280;63820;65.654;21.944;2022-12-18T03:27:33;101236.81;;;-19.94;100.00
12676;BME280;63820;65.654;21.944;2022-12-18T03:30:20;101244.84;;;-19.96;100.00
12676;BME280;63820;65.654;21.944;2022-12-18T03:36:01;101243.28;;;-20.04;100.00
12676;BME280;63820;65.654;21.944;2022-12-18T03:38:46;101250.56;;;-20.06;100.00
12676;BME280;63820;65.654;21.944;2022-12-18T03:41:47;101240.88;;;-20.13;100.00
12676;BME280;63820;65.654;21.944;2022-12-18T03:47:43;101251.50;;;-20.14;100.00
12676;BME280;63820;65.654;21.944;2022-12-18T03:51:17;101228.84;;;-20.27;100.00
12676;BME280;63820;65.654;21.944;2022-12-18T03:54:02;101249.19;;;-20.21;100.00
12676;BME280;63820;65.654;21.944;2022-12-18T03:56:54;101234.06;;;-20.24;100.00
12676;BME280;63820;65.654;21.944;2022-12-18T03:59:41;101238.44;;;-20.22;100.00
12676;BME280;63820;65.654;21.944;2022-12-18T04:02:26;101228.91;;;-20.36;100.00
12676;BME280;63820;65.654;21.944;2022-12-18T04:05:13;101238.66;;;-20.37;100.00
12676;BME280;63820;65.654;21.944;2022-12-18T04:07:58;101243.53;;;-20.47;100.00
12676;BME280;63820;65.654;21.944;2022-12-18T04:10:43;101234.81;;;-20.52;100.00
12676;BME280;63820;65.654;21.944;2022-12-18T04:13:29;101242.09;;;-20.54;100.00
12676;BME280;63820;65.654;21.944;2022-12-18T04:16:13;101246.31;;;-20.53;100.00
12676;BME280;63820;65.654;21.944;2022-12-18T04:18:57;101238.00;;;-20.53;100.00
12676;BME280;63820;65.654;21.944;2022-12-18T04:21:42;101233.97;;;-20.62;100.00
12676;BME280;63820;65.654;21.944;2022-12-18T04:24:26;101245.19;;;-20.74;100.00
12676;BME280;63820;65.654;21.944;2022-12-18T04:27:10;101232.84;;;-20.74;100.00
12676;BME280;63820;65.654;21.944;2022-12-18T04:29:54;101226.75;;;-20.77;100.00
12676;BME280;63820;65.654;21.944;2022-12-18T04:32:38;101231.16;;;-20.83;100.00
12676;BME280;63820;65.654;21.944;2022-12-18T04:35:23;101235.84;;;-20.95;100.00
12676;BME280;63820;65.654;21.944;2022-12-18T04:38:08;101228.56;;;-20.94;100.00
12676;BME280;63820;65.654;21.944;2022-12-18T04:40:52;101213.16;;;-20.91;100.00
12676;BME280;63820;65.654;21.944;2022-12-18T04:43:36;101214.78;;;-21.00;100.00
12676;BME280;63820;65.654;21.944;2022-12-18T04:46:20;101208.53;;;-21.05;100.00
12676;BME280;63820;65.654;21.944;2022-12-18T04:49:04;101207.22;;;-21.02;100.00
12676;BME280;63820;65.654;21.944;2022-12-18T04:51:48;101206.50;;;-21.09;100.00
12676;BME280;63820;65.654;21.944;2022-12-18T04:54:32;101227.00;;;-21.10;100.00
12676;BME280;63820;65.654;21.944;2022-12-18T04:57:17;101221.47;;;-21.08;100.00
12676;BME280;63820;65.654;21.944;2022-12-18T05:00:04;101220.16;;;-21.04;100.00
12676;BME280;63820;65.654;21.944;2022-12-18T05:02:49;101216.69;;;-21.06;100.00
12676;BME280;63820;65.654;21.944;2022-12-18T05:05:35;101226.72;;;-21.13;100.00
12676;BME280;63820;65.654;21.944;2022-12-18T05:08:19;101222.06;;;-21.19;100.00
12676;BME280;63820;65.654;21.944;2022-12-18T05:11:05;101223.97;;;-21.16;100.00
12676;BME280;63820;65.654;21.944;2022-12-18T05:13:50;101219.78;;;-21.26;100.00
12676;BME280;63820;65.654;21.944;2022-12-18T05:16:35;101214.84;;;-21.35;100.00
12676;BME280;63820;65.654;21.944;2022-12-18T05:19:19;101204.69;;;-21.38;100.00
12676;BME280;63820;65.654;21.944;2022-12-18T05:22:03;101215.00;;;-21.42;100.00
12676;BME280;63820;65.654;21.944;2022-12-18T05:24:47;101205.13;;;-21.42;100.00
12676;BME280;63820;65.654;21.944;2022-12-18T05:27:31;101194.41;;;-21.42;100.00
12676;BME280;63820;65.654;21.944;2022-12-18T05:30:15;101192.94;;;-21.49;100.00
12676;BME280;63820;65.654;21.944;2022-12-18T05:33:00;101201.06;;;-21.50;100.00
12676;BME280;63820;65.654;21.944;2022-12-18T05:35:44;101198.91;;;-21.56;100.00
12676;BME280;63820;65.654;21.944;2022-12-18T05:38:36;101194.53;;;-21.58;100.00
12676;BME280;63820;65.654;21.944;2022-12-18T05:41:20;101195.84;;;-21.53;100.00
12676;BME280;63820;65.654;21.944;2022-12-18T05:44:04;101195.41;;;-21.58;100.00
12676;BME280;63820;65.654;21.944;2022-12-18T05:46:49;101202.25;;;-21.64;100.00
12676;BME280;63820;65.654;21.944;2022-12-18T05:49:33;101201.94;;;-21.58;100.00
12676;BME280;63820;65.654;21.944;2022-12-18T05:52:17;101206.88;;;-21.58;100.00
12676;BME280;63820;65.654;21.944;2022-12-18T05:55:01;101198.19;;;-21.63;100.00
12676;BME280;63820;65.654;21.944;2022-12-18T05:57:46;101194.53;;;-21.58;100.00
12676;BME280;63820;65.654;21.944;2022-12-18T06:00:31;101182.78;;;-21.52;100.00
12676;BME280;63820;65.654;21.944;2022-12-18T06:03:15;101189.31;;;-21.52;100.00
12676;BME280;63820;65.654;21.944;2022-12-18T06:06:00;101198.75;;;-21.57;100.00
12676;BME280;63820;65.654;21.944;2022-12-18T06:08:46;101193.25;;;-21.55;100.00
12676;BME280;63820;65.654;21.944;2022-12-18T06:11:30;101196.28;;;-21.57;100.00
12676;BME280;63820;65.654;21.944;2022-12-18T06:14:14;101191.94;;;-21.68;100.00
12676;BME280;63820;65.654;21.944;2022-12-18T06:17:01;101202.81;;;-21.75;100.00
12676;BME280;63820;65.654;21.944;2022-12-18T06:19:45;101196.44;;;-21.64;100.00
12676;BME280;63820;65.654;21.944;2022-12-18T06:22:31;101190.91;;;-21.70;100.00
12676;BME280;63820;65.654;21.944;2022-12-18T06:25:15;101189.31;;;-21.70;100.00
12676;BME280;63820;65.654;21.944;2022-12-18T06:27:59;101190.47;;;-21.75;100.00
12676;BME280;63820;65.654;21.944;2022-12-18T06:30:44;101189.91;;;-21.90;100.00
12676;BME280;63820;65.654;21.944;2022-12-18T06:33:29;101194.13;;;-21.89;100.00
12676;BME280;63820;65.654;21.944;2022-12-18T06:36:14;101187.75;;;-21.95;100.00
12676;BME280;63820;65.654;21.944;2022-12-18T06:38:58;101199.34;;;-21.94;100.00
12676;BME280;63820;65.654;21.944;2022-12-18T06:41:43;101204.72;;;-21.98;100.00
12676;BME280;63820;65.654;21.944;2022-12-18T06:44:27;101206.59;;;-21.96;100.00
12676;BME280;63820;65.654;21.944;2022-12-18T06:47:11;101201.09;;;-21.93;100.00
12676;BME280;63820;65.654;21.944;2022-12-18T06:49:55;101198.03;;;-21.91;100.00
12676;BME280;63820;65.654;21.944;2022-12-18T06:52:39;101211.69;;;-21.94;100.00
12676;BME280;63820;65.654;21.944;2022-12-18T06:55:24;101204.56;;;-22.00;100.00
12676;BME280;63820;65.654;21.944;2022-12-18T06:58:08;101204.88;;;-22.05;100.00
12676;BME280;63820;65.654;21.944;2022-12-18T07:00:53;101208.78;;;-22.07;100.00
12676;BME280;63820;65.654;21.944;2022-12-18T07:03:39;101210.09;;;-22.11;100.00
12676;BME280;63820;65.654;21.944;2022-12-18T07:06:25;101212.97;;;-22.15;100.00
12676;BME280;63820;65.654;21.944;2022-12-18T07:09:09;101210.66;;;-22.13;100.00
12676;BME280;63820;65.654;21.944;2022-12-18T07:11:53;101216.47;;;-22.13;100.00
12676;BME280;63820;65.654;21.944;2022-12-18T07:14:37;101218.81;;;-22.06;100.00
12676;BME280;63820;65.654;21.944;2022-12-18T07:17:21;101211.25;;;-22.07;100.00
12676;BME280;63820;65.654;21.944;2022-12-18T07:20:05;101215.75;;;-22.03;100.00
12676;BME280;63820;65.654;21.944;2022-12-18T07:22:50;101210.97;;;-22.02;100.00
12676;BME280;63820;65.654;21.944;2022-12-18T07:25:35;101208.78;;;-21.99;100.00
12676;BME280;63820;65.654;21.944;2022-12-18T07:28:20;101200.94;;;-21.86;100.00
12676;BME280;63820;65.654;21.944;2022-12-18T07:31:06;101207.91;;;-21.73;100.00
12676;BME280;63820;65.654;21.944;2022-12-18T07:33:50;101191.78;;;-21.61;100.00
12676;BME280;63820;65.654;21.944;2022-12-18T07:36:35;101186.13;;;-21.43;100.00
12676;BME280;63820;65.654;21.944;2022-12-18T07:39:19;101180.94;;;-21.10;100.00
12676;BME280;63820;65.654;21.944;2022-12-18T07:42:03;101179.72;;;-20.88;100.00
12676;BME280;63820;65.654;21.944;2022-12-18T07:45:07;101180.50;;;-20.70;100.00
12676;BME280;63820;65.654;21.944;2022-12-18T07:47:51;101188.25;;;-20.48;100.00
12676;BME280;63820;65.654;21.944;2022-12-18T07:50:35;101181.41;;;-20.23;100.00
12676;BME280;63820;65.654;21.944;2022-12-18T07:53:19;101181.03;;;-20.09;100.00
12676;BME280;63820;65.654;21.944;2022-12-18T07:56:06;101166.41;;;-19.97;100.00
12676;BME280;63820;65.654;21.944;2022-12-18T07:58:50;101153.06;;;-19.70;100.00
12676;BME280;63820;65.654;21.944;2022-12-18T08:01:34;101159.34;;;-19.55;100.00
12676;BME280;63820;65.654;21.944;2022-12-18T08:04:18;101159.41;;;-19.35;100.00
12676;BME280;63820;65.654;21.944;2022-12-18T08:07:02;101162.47;;;-19.18;100.00
12676;BME280;63820;65.654;21.944;2022-12-18T08:09:46;101162.53;;;-18.98;100.00
12676;BME280;63820;65.654;21.944;2022-12-18T08:12:30;101155.25;;;-18.86;100.00
12676;BME280;63820;65.654;21.944;2022-12-18T08:15:14;101166.09;;;-18.76;100.00
12676;BME280;63820;65.654;21.944;2022-12-18T08:17:59;101167.31;;;-18.61;100.00
12676;BME280;63820;65.654;21.944;2022-12-18T08:20:43;101169.16;;;-18.48;100.00
12676;BME280;63820;65.654;21.944;2022-12-18T08:23:27;101172.28;;;-18.30;100.00
12676;BME280;63820;65.654;21.944;2022-12-18T08:26:11;101160.41;;;-18.04;100.00
12676;BME280;63820;65.654;21.944;2022-12-18T08:28:57;101171.94;;;-17.94;100.00
12676;BME280;63820;65.654;21.944;2022-12-18T08:31:42;101162.97;;;-17.72;100.00
12676;BME280;63820;65.654;21.944;2022-12-18T08:34:26;101161.41;;;-17.60;100.00
12676;BME280;63820;65.654;21.944;2022-12-18T08:37:10;101158.66;;;-17.52;100.00
12676;BME280;63820;65.654;21.944;2022-12-18T08:39:54;101163.75;;;-17.51;100.00
12676;BME280;63820;65.654;21.944;2022-12-18T08:42:38;101156.41;;;-17.49;100.00
12676;BME280;63820;65.654;21.944;2022-12-18T08:45:41;101161.97;;;-17.42;100.00
12676;BME280;63820;65.654;21.944;2022-12-18T08:48:25;101158.00;;;-17.40;100.00
12676;BME280;63820;65.654;21.944;2022-12-18T08:51:09;101150.16;;;-17.34;100.00
12676;BME280;63820;65.654;21.944;2022-12-18T08:53:54;101166.69;;;-17.35;100.00
12676;BME280;63820;65.654;21.944;2022-12-18T08:56:38;101169.50;;;-17.20;100.00
12676;BME280;63820;65.654;21.944;2022-12-18T08:59:22;101161.91;;;-17.22;100.00
12676;BME280;63820;65.654;21.944;2022-12-18T09:02:10;101167.28;;;-17.27;100.00
12676;BME280;63820;65.654;21.944;2022-12-18T09:04:54;101175.88;;;-17.34;100.00
12676;BME280;63820;65.654;21.944;2022-12-18T09:07:38;101189.28;;;-17.32;100.00
12676;BME280;63820;65.654;21.944;2022-12-18T09:10:23;101176.31;;;-17.17;100.00
12676;BME280;63820;65.654;21.944;2022-12-18T09:13:06;101157.00;;;-16.78;100.00
12676;BME280;63820;65.654;21.944;2022-12-18T09:15:52;101145.56;;;-16.76;100.00
12676;BME280;63820;65.654;21.944;2022-12-18T09:18:37;101167.94;;;-16.76;100.00
12676;BME280;63820;65.654;21.944;2022-12-18T09:21:21;101160.19;;;-16.69;100.00
12676;BME280;63820;65.654;21.944;2022-12-18T09:24:06;101145.81;;;-16.49;100.00
12676;BME280;63820;65.654;21.944;2022-12-18T09:26:53;101147.19;;;-16.31;100.00
12676;BME280;63820;65.654;21.944;2022-12-18T09:29:38;101146.66;;;-16.27;100.00
12676;BME280;63820;65.654;21.944;2022-12-18T09:32:23;101152.47;;;-16.05;100.00
12676;BME280;63820;65.654;21.944;2022-12-18T09:35:07;101149.88;;;-15.95;100.00
12676;BME280;63820;65.654;21.944;2022-12-18T09:37:51;101145.16;;;-15.80;100.00
12676;BME280;63820;65.654;21.944;2022-12-18T09:40:41;101134.53;;;-15.66;100.00
12676;BME280;63820;65.654;21.944;2022-12-18T09:43:35;101137.94;;;-15.52;100.00
12676;BME280;63820;65.654;21.944;2022-12-18T09:46:35;101135.13;;;-15.33;100.00
12676;BME280;63820;65.654;21.944;2022-12-18T09:49:25;101115.81;;;-15.12;100.00
12676;BME280;63820;65.654;21.944;2022-12-18T09:55:03;101081.44;;;-15.16;100.00
12676;BME280;63820;65.654;21.944;2022-12-18T09:57:55;101089.44;;;-15.09;100.00
12676;BME280;63820;65.654;21.944;2022-12-18T10:00:40;101098.63;;;-14.96;100.00
12676;BME280;63820;65.654;21.944;2022-12-18T10:03:25;101122.84;;;-15.07;100.00
12676;BME280;63820;65.654;21.944;2022-12-18T10:06:16;101129.13;;;-15.00;100.00
12676;BME280;63820;65.654;21.944;2022-12-18T10:15:19;101070.63;;;-14.92;100.00
12676;BME280;63820;65.654;21.944;2022-12-18T10:21:03;101054.66;;;-14.82;100.00
12676;BME280;63820;65.654;21.944;2022-12-18T10:26:47;101033.47;;;-14.76;100.00
12676;BME280;63820;65.654;21.944;2022-12-18T10:29:32;101036.25;;;-14.71;100.00
12676;BME280;63820;65.654;21.944;2022-12-18T10:32:18;101051.19;;;-14.60;100.00
12676;BME280;63820;65.654;21.944;2022-12-18T10:35:03;101048.94;;;-14.55;100.00
12676;BME280;63820;65.654;21.944;2022-12-18T10:38:03;101031.88;;;-14.49;100.00
12676;BME280;63820;65.654;21.944;2022-12-18T10:44:11;101027.34;;;-14.55;100.00
12676;BME280;63820;65.654;21.944;2022-12-18T10:47:03;101015.63;;;-14.56;100.00
12676;BME280;63820;65.654;21.944;2022-12-18T10:49:51;101011.34;;;-14.45;100.00
12676;BME280;63820;65.654;21.944;2022-12-18T10:52:36;101013.72;;;-14.46;100.00
12676;BME280;63820;65.654;21.944;2022-12-18T10:55:21;101020.25;;;-14.48;100.00
12676;BME280;63820;65.654;21.944;2022-12-18T11:01:15;101026.88;;;-14.36;100.00
12676;BME280;63820;65.654;21.944;2022-12-18T11:04:08;101020.81;;;-14.39;100.00
12676;BME280;63820;65.654;21.944;2022-12-18T11:09:39;100995.28;;;-14.48;100.00
12676;BME280;63820;65.654;21.944;2022-12-18T11:12:24;100988.34;;;-14.52;100.00
12676;BME280;63820;65.654;21.944;2022-12-18T11:15:16;100976.06;;;-14.49;100.00
12676;BME280;63820;65.654;21.944;2022-12-18T11:18:03;100970.69;;;-14.56;100.00
12676;BME280;63820;65.654;21.944;2022-12-18T11:21:05;100957.06;;;-14.47;100.00
12676;BME280;63820;65.654;21.944;2022-12-18T11:23:51;100962.63;;;-14.38;100.00
12676;BME280;63820;65.654;21.944;2022-12-18T11:26:36;100958.00;;;-14.32;100.00
12676;BME280;63820;65.654;21.944;2022-12-18T11:29:31;100953.97;;;-14.17;100.00
12676;BME280;63820;65.654;21.944;2022-12-18T11:38:22;100943.88;;;-14.05;100.00
12676;BME280;63820;65.654;21.944;2022-12-18T11:41:30;100933.59;;;-13.97;100.00
12676;BME280;63820;65.654;21.944;2022-12-18T11:47:49;100912.25;;;-13.92;100.00
12676;BME280;63820;65.654;21.944;2022-12-18T11:53:20;100899.53;;;-13.81;100.00
12676;BME280;63820;65.654;21.944;2022-12-18T12:15:13;100844.63;;;-13.52;100.00
12676;BME280;63820;65.654;21.944;2022-12-18T12:18:23;100834.00;;;-13.48;100.00
12676;BME280;63820;65.654;21.944;2022-12-18T12:21:25;100825.72;;;-13.47;100.00
12676;BME280;63820;65.654;21.944;2022-12-18T12:24:27;100821.06;;;-13.41;100.00
12676;BME280;63820;65.654;21.944;2022-12-18T12:30:08;100826.25;;;-13.38;100.00
12676;BME280;63820;65.654;21.944;2022-12-18T12:39:26;100807.88;;;-13.24;100.00
12676;BME280;63820;65.654;21.944;2022-12-18T12:42:18;100801.97;;;-13.09;100.00
12676;BME280;63820;65.654;21.944;2022-12-18T12:48:49;100788.88;;;-13.05;100.00
12676;BME280;63820;65.654;21.944;2022-12-18T12:51:37;100789.13;;;-13.01;100.00
12676;BME280;63820;65.654;21.944;2022-12-18T12:54:24;100777.97;;;-12.91;100.00
12676;BME280;63820;65.654;21.944;2022-12-18T12:57:34;100768.13;;;-12.88;100.00
12676;BME280;63820;65.654;21.944;2022-12-18T13:00:21;100760.94;;;-12.82;100.00
12676;BME280;63820;65.654;21.944;2022-12-18T13:03:18;100751.72;;;-12.83;100.00
12676;BME280;63820;65.654;21.944;2022-12-18T13:06:46;100763.91;;;-12.89;100.00
12676;BME280;63820;65.654;21.944;2022-12-18T13:09:33;100756.75;;;-12.98;100.00
12676;BME280;63820;65.654;21.944;2022-12-18T13:12:18;100754.34;;;-12.96;100.00
12676;BME280;63820;65.654;21.944;2022-12-18T13:15:34;100751.81;;;-12.96;100.00
12676;BME280;63820;65.654;21.944;2022-12-18T13:18:22;100751.75;;;-13.12;100.00
12676;BME280;63820;65.654;21.944;2022-12-18T13:21:23;100742.25;;;-13.03;100.00
12676;BME280;63820;65.654;21.944;2022-12-18T13:24:26;100744.25;;;-13.12;100.00
12676;BME280;63820;65.654;21.944;2022-12-18T13:27:46;100733.47;;;-13.11;100.00
12676;BME280;63820;65.654;21.944;2022-12-18T13:36:27;100723.97;;;-13.02;100.00
12676;BME280;63820;65.654;21.944;2022-12-18T13:44:49;100705.81;;;-12.98;100.00
12676;BME280;63820;65.654;21.944;2022-12-18T13:47:35;100698.94;;;-13.02;100.00
12676;BME280;63820;65.654;21.944;2022-12-18T13:50:24;100691.50;;;-13.01;100.00
12676;BME280;63820;65.654;21.944;2022-12-18T13:53:21;100682.00;;;-12.92;100.00
12676;BME280;63820;65.654;21.944;2022-12-18T13:56:06;100680.09;;;-12.96;100.00
12676;BME280;63820;65.654;21.944;2022-12-18T14:01:59;100665.97;;;-12.79;100.00
12676;BME280;63820;65.654;21.944;2022-12-18T14:04:47;100662.59;;;-12.79;100.00
12676;BME280;63820;65.654;21.944;2022-12-18T14:07:32;100655.03;;;-12.81;100.00
12676;BME280;63820;65.654;21.944;2022-12-18T14:10:17;100662.06;;;-12.74;100.00
12676;BME280;63820;65.654;21.944;2022-12-18T14:13:10;100648.59;;;-12.76;100.00
12676;BME280;63820;65.654;21.944;2022-12-18T14:15:55;100644.09;;;-12.67;100.00
12676;BME280;63820;65.654;21.944;2022-12-18T14:21:33;100632.81;;;-12.59;100.00
12676;BME280;63820;65.654;21.944;2022-12-18T14:24:21;100631.41;;;-12.53;100.00
12676;BME280;63820;65.654;21.944;2022-12-18T14:27:20;100628.97;;;-12.52;100.00
12676;BME280;63820;65.654;21.944;2022-12-18T14:33:18;100617.28;;;-12.35;100.00
12676;BME280;63820;65.654;21.944;2022-12-18T14:36:04;100620.78;;;-12.32;100.00
12676;BME280;63820;65.654;21.944;2022-12-18T14:38:51;100606.00;;;-12.27;100.00
12676;BME280;63820;65.654;21.944;2022-12-18T14:41:37;100609.59;;;-12.22;100.00
12676;BME280;63820;65.654;21.944;2022-12-18T14:44:22;100606.84;;;-12.27;100.00
12676;BME280;63820;65.654;21.944;2022-12-18T14:47:14;100603.06;;;-12.18;100.00
12676;BME280;63820;65.654;21.944;2022-12-18T14:49:59;100605.72;;;-12.15;100.00
12676;BME280;63820;65.654;21.944;2022-12-18T14:52:44;100603.47;;;-12.11;100.00
12676;BME280;63820;65.654;21.944;2022-12-18T14:55:28;100602.97;;;-12.04;100.00
12676;BME280;63820;65.654;21.944;2022-12-18T14:58:14;100598.44;;;-12.11;100.00
12676;BME280;63820;65.654;21.944;2022-12-18T15:00:59;100595.94;;;-12.11;100.00
12676;BME280;63820;65.654;21.944;2022-12-18T15:03:44;100594.50;;;-12.06;100.00
12676;BME280;63820;65.654;21.944;2022-12-18T15:06:30;100591.28;;;-12.03;100.00
12676;BME280;63820;65.654;21.944;2022-12-18T15:09:25;100586.44;;;-12.00;100.00
12676;BME280;63820;65.654;21.944;2022-12-18T15:12:26;100578.69;;;-12.05;100.00
12676;BME280;63820;65.654;21.944;2022-12-18T15:18:29;100575.47;;;-12.02;100.00
12676;BME280;63820;65.654;21.944;2022-12-18T15:21:18;100584.00;;;-11.99;100.00
12676;BME280;63820;65.654;21.944;2022-12-18T15:24:04;100575.97;;;-11.92;100.00
12676;BME280;63820;65.654;21.944;2022-12-18T15:27:00;100576.13;;;-11.88;100.00
12676;BME280;63820;65.654;21.944;2022-12-18T15:29:59;100576.78;;;-11.93;100.00
12676;BME280;63820;65.654;21.944;2022-12-18T15:32:44;100570.81;;;-11.95;100.00
12676;BME280;63820;65.654;21.944;2022-12-18T15:35:28;100568.31;;;-11.95;100.00
12676;BME280;63820;65.654;21.944;2022-12-18T15:38:12;100572.13;;;-11.85;100.00
12676;BME280;63820;65.654;21.944;2022-12-18T15:40:57;100564.53;;;-11.86;100.00
12676;BME280;63820;65.654;21.944;2022-12-18T15:43:41;100562.00;;;-11.86;100.00
12676;BME280;63820;65.654;21.944;2022-12-18T15:46:26;100554.78;;;-11.80;100.00
12676;BME280;63820;65.654;21.944;2022-12-18T15:49:11;100549.84;;;-11.79;100.00
12676;BME280;63820;65.654;21.944;2022-12-18T15:51:58;100553.22;;;-11.78;100.00
12676;BME280;63820;65.654;21.944;2022-12-18T15:54:43;100550.09;;;-11.73;100.00
12676;BME280;63820;65.654;21.944;2022-12-18T15:57:46;100553.69;;;-11.68;100.00
12676;BME280;63820;65.654;21.944;2022-12-18T16:00:32;100553.75;;;-11.66;100.00
12676;BME280;63820;65.654;21.944;2022-12-18T16:03:17;100560.56;;;-11.64;100.00
12676;BME280;63820;65.654;21.944;2022-12-18T16:06:02;100553.69;;;-11.68;100.00